Time;durP1;ratioP1;P1;durP2;ratioP2;P2;SDS_P1;SDS_P2;PMS_P1;PMS_P2;Temp;Humidity;BMP_temperature;BMP_pressure;BME280_temperature;BME280_humidity;BME280_pressure;Samples;Min_cycle;Max_cycle;Signal;HPM_P1;HPM_P2
2022/08/26 00:00:27;;;;;;;6.20;3.13;;;24.20;78.50;;;;;;5028085;28;20159;-59
2022/08/26 00:02:53;;;;;;;5.57;2.53;;;24.10;78.90;;;;;;5029116;28;20112;-59
2022/08/26 00:05:19;;;;;;;4.28;2.22;;;24.10;79.00;;;;;;5027709;28;20036;-59
2022/08/26 00:07:45;;;;;;;7.57;3.17;;;24.10;79.20;;;;;;5027878;28;20441;-59
2022/08/26 00:10:11;;;;;;;6.53;2.60;;;24.00;79.30;;;;;;5028650;28;20029;-59
2022/08/26 00:12:37;;;;;;;4.55;2.85;;;24.00;79.50;;;;;;5029079;28;20028;-59
2022/08/26 00:15:06;;;;;;;6.72;3.47;;;24.00;79.70;;;;;;5029209;28;20041;-59
2022/08/26 00:17:31;;;;;;;5.38;2.72;;;24.00;80.00;;;;;;5028879;28;20022;-59
2022/08/26 00:19:57;;;;;;;5.47;2.28;;;23.90;80.30;;;;;;5028852;28;20401;-59
2022/08/26 00:22:22;;;;;;;4.47;2.20;;;23.90;80.50;;;;;;5028570;28;20102;-58
2022/08/26 00:24:48;;;;;;;3.58;2.28;;;23.80;80.60;;;;;;5028563;28;20057;-59
2022/08/26 00:27:13;;;;;;;3.58;1.95;;;23.80;80.70;;;;;;5028902;28;20017;-59
2022/08/26 00:29:39;;;;;;;5.30;1.90;;;23.80;80.70;;;;;;5028473;28;20395;-59
2022/08/26 00:32:05;;;;;;;4.15;2.00;;;23.70;80.80;;;;;;5028501;28;20057;-59
2022/08/26 00:34:31;;;;;;;4.50;1.88;;;23.70;81.00;;;;;;5029114;28;20396;-59
2022/08/26 00:36:56;;;;;;;3.72;1.50;;;23.80;80.90;;;;;;5028605;28;20565;-59
2022/08/26 00:39:22;;;;;;;2.75;1.50;;;23.80;81.00;;;;;;5028147;28;20555;-58
2022/08/26 00:41:48;;;;;;;3.25;1.27;;;23.70;81.10;;;;;;5011418;28;20033;-59
2022/08/26 00:44:14;;;;;;;4.85;1.45;;;23.70;81.40;;;;;;5028018;28;20559;-59
2022/08/26 00:47:04;;;;;;;4.40;1.52;;;23.70;81.40;;;;;;5028830;28;20032;-59
2022/08/26 00:49:43;;;;;;;3.55;1.80;;;23.70;81.40;;;;;;5027940;28;20057;-59
2022/08/26 00:52:13;;;;;;;4.40;1.70;;;23.60;81.80;;;;;;5028396;28;20025;-59
2022/08/26 00:54:48;;;;;;;3.00;1.20;;;23.60;82.00;;;;;;5028065;28;20386;-58
2022/08/26 00:57:17;;;;;;;2.25;0.85;;;23.50;81.90;;;;;;5026684;28;20021;-59
2022/08/26 00:59:45;;;;;;;3.25;1.30;;;23.50;82.00;;;;;;5015155;28;20030;-59
2022/08/26 01:02:12;;;;;;;4.13;1.10;;;23.50;82.60;;;;;;5028364;28;20167;-59
2022/08/26 01:04:39;;;;;;;3.22;1.13;;;23.50;82.00;;;;;;5027050;28;20026;-59
2022/08/26 01:07:06;;;;;;;2.40;0.98;;;23.50;81.90;;;;;;5028576;28;20080;-59
2022/08/26 01:09:32;;;;;;;2.25;1.10;;;23.50;82.00;;;;;;5028007;28;20083;-58
2022/08/26 01:12:01;;;;;;;4.50;1.60;;;23.50;82.10;;;;;;5028305;28;20096;-58
2022/08/26 01:14:31;;;;;;;4.28;1.30;;;23.50;82.30;;;;;;5027942;28;20044;-59
2022/08/26 01:16:57;;;;;;;4.50;1.30;;;23.40;82.30;;;;;;5028601;28;20017;-58
2022/08/26 01:19:30;;;;;;;3.80;1.60;;;23.40;82.50;;;;;;5029602;28;20469;-59
2022/08/26 01:22:23;;;;;;;3.50;1.10;;;23.30;82.80;;;;;;5032515;28;21064;-59
2022/08/26 01:24:50;;;;;;;4.05;1.42;;;23.30;82.80;;;;;;5029277;28;20048;-59
2022/08/26 01:27:18;;;;;;;4.53;1.70;;;23.20;83.30;;;;;;5031980;28;20021;-59
2022/08/26 01:29:45;;;;;;;4.13;1.50;;;23.20;83.60;;;;;;5031890;28;20128;-59
2022/08/26 01:32:14;;;;;;;5.18;1.90;;;23.10;83.60;;;;;;5032078;28;20498;-58
2022/08/26 01:34:40;;;;;;;;;;;23.10;83.70;;;;;;5032202;28;20112;-59
2022/08/26 01:37:11;;;;;;;3.75;1.95;;;23.00;83.70;;;;;;5031485;28;20601;-59
2022/08/26 01:39:38;;;;;;;4.60;1.60;;;23.00;84.30;;;;;;5031987;28;20108;-59
2022/08/26 01:42:07;;;;;;;2.00;1.02;;;23.00;84.10;;;;;;5031543;28;20144;-58
2022/08/26 01:44:38;;;;;;;3.92;1.15;;;23.00;83.90;;;;;;5029438;28;20120;-58
2022/08/26 01:47:08;;;;;;;5.30;1.52;;;23.00;84.00;;;;;;5031678;28;20140;-58
2022/08/26 01:49:35;;;;;;;2.88;1.40;;;23.00;84.00;;;;;;5030259;28;20025;-59
2022/08/26 01:52:03;;;;;;;3.28;1.75;;;22.90;84.00;;;;;;5029996;28;20901;-58
2022/08/26 01:54:29;;;;;;;4.10;1.85;;;22.90;84.10;;;;;;5029860;28;20044;-58
2022/08/26 01:56:54;;;;;;;2.95;1.52;;;23.00;84.30;;;;;;5031440;28;20485;-59
2022/08/26 01:59:22;;;;;;;3.65;1.48;;;23.00;84.30;;;;;;5031872;28;20025;-58
2022/08/26 02:01:48;;;;;;;3.67;1.33;;;23.00;84.40;;;;;;5031359;28;20026;-58
2022/08/26 02:04:16;;;;;;;5.40;1.60;;;23.00;84.50;;;;;;5031254;28;20050;-58
2022/08/26 02:06:43;;;;;;;2.67;1.45;;;22.90;84.60;;;;;;5031014;28;20057;-58
2022/08/26 02:09:10;;;;;;;2.00;1.00;;;22.90;84.80;;;;;;5028734;28;20030;-58
2022/08/26 02:11:35;;;;;;;2.58;1.10;;;22.80;84.80;;;;;;5031179;28;20030;-58
2022/08/26 02:14:08;;;;;;;3.47;1.17;;;22.80;84.90;;;;;;5031334;28;20443;-59
2022/08/26 02:16:38;;;;;;;3.20;1.27;;;22.80;85.00;;;;;;5029687;28;20036;-59
2022/08/26 02:19:05;;;;;;;2.85;0.93;;;22.80;85.90;;;;;;5030906;28;20056;-59
2022/08/26 02:21:31;;;;;;;4.13;1.05;;;22.80;85.40;;;;;;5031053;28;20057;-59
2022/08/26 02:24:07;;;;;;;1.88;0.70;;;22.80;85.40;;;;;;5031197;28;20026;-59
2022/08/26 02:26:33;;;;;;;2.83;1.23;;;22.80;85.50;;;;;;5029493;28;20026;-59
2022/08/26 02:29:06;;;;;;;3.05;0.95;;;22.80;85.60;;;;;;5030726;28;20060;-59
2022/08/26 02:31:31;;;;;;;2.05;0.77;;;22.80;85.70;;;;;;5029820;28;20032;-58
2022/08/26 02:34:11;;;;;;;3.38;0.98;;;22.80;85.90;;;;;;5030944;28;20033;-59
2022/08/26 02:36:37;;;;;;;2.92;1.02;;;22.80;85.90;;;;;;5030648;28;20581;-59
2022/08/26 02:39:03;;;;;;;2.97;1.10;;;22.70;86.10;;;;;;5030777;28;20104;-59
2022/08/26 02:41:29;;;;;;;3.90;0.95;;;22.70;86.20;;;;;;5032550;28;20048;-58
2022/08/26 02:43:54;;;;;;;4.25;1.08;;;22.70;86.60;;;;;;5030457;28;20490;-58
2022/08/26 02:46:20;;;;;;;3.47;0.90;;;22.70;86.80;;;;;;5030593;28;20428;-59
2022/08/26 02:48:46;;;;;;;3.13;0.80;;;22.60;87.00;;;;;;5030388;28;20040;-58
2022/08/26 02:51:11;;;;;;;4.78;1.00;;;22.70;87.10;;;;;;5030214;28;20444;-58
2022/08/26 02:53:37;;;;;;;2.97;0.80;;;22.60;87.10;;;;;;5030248;28;20082;-58
2022/08/26 02:56:06;;;;;;;4.65;0.75;;;22.60;87.20;;;;;;5030473;28;20103;-58
2022/08/26 02:58:32;;;;;;;2.35;0.82;;;22.60;87.20;;;;;;5030215;28;20029;-59
2022/08/26 03:00:58;;;;;;;1.92;0.77;;;22.60;87.30;;;;;;5030409;28;20033;-58
2022/08/26 03:03:24;;;;;;;1.15;0.63;;;22.60;87.30;;;;;;5030356;28;20074;-58
2022/08/26 03:05:51;;;;;;;2.80;0.80;;;22.60;87.40;;;;;;5030154;28;20112;-58
2022/08/26 03:08:16;;;;;;;3.00;0.77;;;22.60;87.40;;;;;;5030260;28;20033;-59
2022/08/26 03:10:42;;;;;;;1.20;0.57;;;22.60;87.60;;;;;;5030239;28;20042;-59
2022/08/26 03:13:07;;;;;;;1.42;0.68;;;22.60;87.60;;;;;;5029978;28;20079;-59
2022/08/26 03:15:33;;;;;;;3.40;0.70;;;22.60;87.60;;;;;;5030160;28;20075;-59
2022/08/26 03:17:58;;;;;;;2.42;0.70;;;22.60;87.60;;;;;;5030317;28;20048;-58
2022/08/26 03:20:24;;;;;;;2.30;0.57;;;22.60;87.80;;;;;;5029846;28;20040;-58
2022/08/26 03:22:52;;;;;;;2.55;0.70;;;22.60;87.90;;;;;;5028647;28;20034;-58
2022/08/26 03:25:19;;;;;;;2.53;0.55;;;22.60;88.10;;;;;;5028387;28;20021;-58
2022/08/26 03:27:45;;;;;;;2.53;0.70;;;22.50;88.10;;;;;;5029559;28;20021;-58
2022/08/26 03:32:56;;;;;;;2.40;0.70;;;22.50;88.20;;;;;;5028050;28;20036;-59
2022/08/26 03:35:22;;;;;;;2.88;0.70;;;22.50;88.40;;;;;;5029390;28;20022;-59
2022/08/26 03:37:47;;;;;;;3.45;0.57;;;22.50;88.40;;;;;;5029491;28;20030;-58
2022/08/26 03:40:13;;;;;;;2.45;0.57;;;22.50;88.50;;;;;;5029621;28;20017;-59
2022/08/26 03:42:40;;;;;;;3.03;0.75;;;22.50;88.60;;;;;;5029189;28;20049;-58
2022/08/26 03:45:09;;;;;;;3.20;1.42;;;22.50;88.70;;;;;;5029330;28;20033;-58
2022/08/26 03:47:35;;;;;;;1.60;0.50;;;22.50;88.80;;;;;;5029121;28;20079;-58
2022/08/26 03:50:01;;;;;;;3.67;0.50;;;22.50;88.90;;;;;;5029563;28;20040;-58
2022/08/26 03:52:26;;;;;;;1.00;0.50;;;22.50;89.00;;;;;;5029224;28;20116;-59
2022/08/26 03:54:52;;;;;;;2.25;0.60;;;22.40;89.10;;;;;;5029232;28;20052;-58
2022/08/26 03:57:18;;;;;;;3.80;0.60;;;22.40;89.30;;;;;;5029250;28;20036;-58
2022/08/26 03:59:44;;;;;;;4.75;0.90;;;22.40;89.40;;;;;;5028942;28;20441;-58
2022/08/26 04:02:09;;;;;;;2.00;0.60;;;22.40;89.40;;;;;;5026327;28;20021;-58
2022/08/26 04:04:35;;;;;;;2.30;0.95;;;22.40;89.60;;;;;;5029107;28;20073;-58
2022/08/26 04:07:00;;;;;;;2.40;0.60;;;22.40;89.80;;;;;;5029183;28;20068;-58
2022/08/26 04:09:26;;;;;;;2.80;0.65;;;22.40;89.90;;;;;;5029411;28;20470;-58
2022/08/26 04:11:53;;;;;;;2.83;0.60;;;22.30;89.90;;;;;;5028779;28;20065;-58
2022/08/26 04:14:22;;;;;;;1.92;0.40;;;22.30;90.00;;;;;;5029159;28;20026;-58
2022/08/26 04:16:48;;;;;;;3.42;0.80;;;22.30;90.00;;;;;;5028492;28;20022;-58
2022/08/26 04:19:15;;;;;;;1.25;0.50;;;22.30;90.00;;;;;;5028774;28;20033;-58
2022/08/26 04:21:42;;;;;;;5.70;1.15;;;22.30;90.00;;;;;;5011384;28;20021;-58
2022/08/26 04:24:10;;;;;;;2.72;0.60;;;22.30;90.10;;;;;;5028638;28;20132;-58
2022/08/26 04:26:36;;;;;;;1.85;0.55;;;22.30;90.20;;;;;;5028861;28;20117;-58
2022/08/26 04:29:08;;;;;;;2.03;0.52;;;22.30;90.20;;;;;;5028632;28;20049;-58
2022/08/26 04:31:35;;;;;;;2.63;0.70;;;22.30;90.30;;;;;;5027205;28;20032;-58
2022/08/26 04:34:01;;;;;;;2.40;0.55;;;22.20;90.30;;;;;;5028685;28;20386;-58
2022/08/26 04:36:27;;;;;;;1.83;0.50;;;22.20;90.30;;;;;;5028076;28;20485;-58
2022/08/26 04:38:53;;;;;;;1.67;0.50;;;22.20;90.40;;;;;;5027637;28;20151;-58
2022/08/26 04:41:19;;;;;;;2.88;0.50;;;22.20;90.40;;;;;;5028839;28;20029;-58
2022/08/26 04:43:46;;;;;;;1.90;0.32;;;22.20;90.40;;;;;;5024357;28;20125;-59
2022/08/26 04:46:15;;;;;;;2.17;0.47;;;22.20;90.40;;;;;;5028171;28;20033;-59
2022/08/26 04:48:41;;;;;;;2.00;0.40;;;22.20;90.50;;;;;;5028512;28;20104;-58
2022/08/26 04:51:06;;;;;;;2.65;0.50;;;22.20;90.50;;;;;;5028492;28;20116;-59
2022/08/26 04:53:32;;;;;;;3.30;0.55;;;22.20;90.50;;;;;;5021323;28;20466;-58
2022/08/26 04:55:58;;;;;;;3.97;0.50;;;22.20;90.50;;;;;;5028739;28;20065;-58
2022/08/26 04:58:24;;;;;;;1.75;0.47;;;22.20;90.50;;;;;;5028647;28;20021;-59
2022/08/26 05:00:53;;;;;;;2.05;0.43;;;22.20;90.50;;;;;;5027107;28;20035;-59
2022/08/26 05:03:19;;;;;;;2.88;0.65;;;22.20;90.50;;;;;;5028721;28;20056;-58
2022/08/26 05:05:46;;;;;;;2.03;0.55;;;22.20;90.60;;;;;;5021183;28;20092;-59
2022/08/26 05:08:14;;;;;;;1.85;0.85;;;22.20;90.60;;;;;;5029778;28;20112;-59
2022/08/26 05:10:42;;;;;;;3.45;0.40;;;22.20;90.60;;;;;;5030260;28;20040;-59
2022/08/26 05:13:08;;;;;;;2.38;0.55;;;22.20;90.70;;;;;;5030841;28;20033;-58
2022/08/26 05:15:35;;;;;;;3.95;1.58;;;22.20;90.60;;;;;;5030816;28;20413;-58
2022/08/26 05:18:02;;;;;;;2.67;0.60;;;22.20;90.70;;;;;;5031479;28;20099;-59
2022/08/26 05:20:28;;;;;;;3.28;0.68;;;22.30;90.80;;;;;;5024475;28;20018;-58
2022/08/26 05:22:53;;;;;;;1.50;0.50;;;22.20;90.80;;;;;;5031737;28;20107;-59
2022/08/26 05:25:19;;;;;;;2.92;0.50;;;22.20;90.80;;;;;;5032012;28;20025;-59
2022/08/26 05:27:44;;;;;;;2.15;0.40;;;22.30;90.80;;;;;;5031650;28;20026;-58
2022/08/26 05:30:10;;;;;;;2.78;0.57;;;22.20;90.80;;;;;;5030688;28;20049;-58
2022/08/26 05:32:36;;;;;;;1.98;0.70;;;22.20;90.90;;;;;;5031210;28;20026;-58
2022/08/26 05:35:01;;;;;;;1.52;0.40;;;22.20;90.90;;;;;;5031471;28;20028;-59
2022/08/26 05:37:27;;;;;;;3.55;0.52;;;22.30;90.90;;;;;;5031283;28;20025;-58
2022/08/26 05:39:52;;;;;;;2.97;0.40;;;22.30;91.00;;;;;;5032247;28;20040;-58
2022/08/26 05:42:18;;;;;;;1.35;0.30;;;22.20;90.90;;;;;;5030457;28;20511;-59
2022/08/26 05:44:44;;;;;;;2.15;0.50;;;22.30;90.90;;;;;;5031665;28;20040;-59
2022/08/26 05:47:09;;;;;;;1.50;0.40;;;22.30;91.00;;;;;;5017189;28;20040;-58
2022/08/26 05:49:35;;;;;;;2.15;0.50;;;22.30;91.00;;;;;;5032023;28;20117;-59
2022/08/26 05:52:01;;;;;;;3.20;0.50;;;22.30;91.00;;;;;;5028414;28;20117;-59
2022/08/26 05:54:26;;;;;;;1.55;0.45;;;22.30;91.00;;;;;;5029827;28;20018;-59
2022/08/26 05:56:52;;;;;;;4.10;0.52;;;22.30;91.00;;;;;;5029406;28;20029;-59
2022/08/26 05:59:18;;;;;;;2.35;0.40;;;22.30;90.90;;;;;;5031502;28;20207;-58
2022/08/26 06:01:43;;;;;;;3.10;0.50;;;22.30;91.00;;;;;;5031540;28;20044;-58
2022/08/26 06:04:10;;;;;;;3.20;0.50;;;22.30;91.00;;;;;;5031662;28;20091;-59
2022/08/26 06:06:40;;;;;;;1.50;0.40;;;22.30;91.00;;;;;;5032928;28;20477;-58
2022/08/26 06:09:09;;;;;;;3.58;0.40;;;22.30;91.00;;;;;;5035113;28;20028;-59
2022/08/26 06:11:34;;;;;;;2.10;0.52;;;22.30;91.00;;;;;;5035102;28;20017;-59
2022/08/26 06:14:04;;;;;;;4.45;0.60;;;22.40;91.10;;;;;;5031849;28;20033;-58
2022/08/26 06:16:33;;;;;;;2.75;0.50;;;22.40;91.10;;;;;;5034170;28;20021;-58
2022/08/26 06:19:01;;;;;;;1.83;0.40;;;22.40;91.10;;;;;;5034815;28;20437;-58
2022/08/26 06:21:30;;;;;;;2.38;0.47;;;22.40;91.10;;;;;;5034986;28;20390;-58
2022/08/26 06:26:49;;;;;;;3.67;0.88;;;22.40;91.00;;;;;;5032161;28;20524;-58
2022/08/26 06:29:16;;;;;;;5.70;0.50;;;22.40;91.10;;;;;;5034732;28;20041;-58
2022/08/26 06:31:41;;;;;;;2.20;0.70;;;22.40;91.00;;;;;;5034413;28;20017;-58
2022/08/26 06:34:07;;;;;;;2.65;0.38;;;22.40;91.00;;;;;;5033184;28;20520;-58
2022/08/26 06:36:34;;;;;;;2.40;0.55;;;22.50;91.00;;;;;;5034222;28;20026;-58
2022/08/26 06:39:03;;;;;;;3.97;0.60;;;22.40;91.00;;;;;;5034401;28;20048;-58
2022/08/26 06:41:30;;;;;;;1.05;0.40;;;22.50;90.90;;;;;;5034594;28;20513;-59
2022/08/26 06:43:57;;;;;;;3.97;0.40;;;22.50;90.90;;;;;;5033727;28;20029;-58
2022/08/26 06:46:26;;;;;;;2.50;0.43;;;22.50;90.80;;;;;;5034514;28;20069;-59
2022/08/26 06:48:52;;;;;;;1.35;0.43;;;22.60;90.80;;;;;;5034138;28;20505;-58
2022/08/26 06:51:24;;;;;;;2.78;0.75;;;22.60;90.80;;;;;;5034344;28;20075;-58
2022/08/26 06:53:52;;;;;;;1.77;0.50;;;22.60;90.70;;;;;;5034297;28;20014;-58
2022/08/26 06:56:21;;;;;;;2.08;0.50;;;22.60;90.70;;;;;;5034505;28;20029;-59
2022/08/26 06:58:47;;;;;;;1.77;0.47;;;22.60;90.70;;;;;;5032213;28;20017;-58
2022/08/26 07:01:17;;;;;;;2.80;0.70;;;22.60;90.70;;;;;;5034219;28;20036;-58
2022/08/26 07:03:42;;;;;;;1.90;0.57;;;22.60;90.70;;;;;;5034173;28;20025;-58
2022/08/26 07:06:09;;;;;;;3.08;0.47;;;22.60;90.70;;;;;;5034031;28;20026;-58
2022/08/26 07:08:35;;;;;;;1.58;0.43;;;22.60;90.60;;;;;;5033944;28;20018;-58
2022/08/26 07:11:06;;;;;;;2.45;0.40;;;22.70;90.60;;;;;;5034138;28;20032;-59
2022/08/26 07:13:34;;;;;;;3.05;0.50;;;22.70;90.60;;;;;;5023250;28;20041;-58
2022/08/26 07:16:02;;;;;;;2.53;0.57;;;22.70;90.60;;;;;;5032764;28;20151;-58
2022/08/26 07:18:27;;;;;;;3.30;0.40;;;22.70;90.50;;;;;;5033742;28;20033;-58
2022/08/26 07:20:53;;;;;;;2.50;0.50;;;22.70;90.50;;;;;;5033515;28;20425;-59
2022/08/26 07:23:19;;;;;;;1.75;0.40;;;22.70;90.40;;;;;;5033778;28;20046;-59
2022/08/26 07:25:44;;;;;;;1.42;0.40;;;22.70;90.40;;;;;;5027586;28;20022;-59
2022/08/26 07:28:10;;;;;;;3.67;0.50;;;22.70;90.40;;;;;;5033309;28;20029;-59
2022/08/26 07:30:39;;;;;;;2.17;0.50;;;22.70;90.40;;;;;;5033594;28;20544;-58
2022/08/26 07:33:05;;;;;;;4.03;0.47;;;22.70;90.30;;;;;;5032494;28;20032;-58
2022/08/26 07:35:31;;;;;;;2.10;0.47;;;22.70;90.30;;;;;;5033024;28;20416;-59
2022/08/26 07:37:56;;;;;;;2.28;0.40;;;22.70;90.20;;;;;;5033403;28;20025;-59
2022/08/26 07:40:22;;;;;;;4.53;0.75;;;22.70;90.20;;;;;;5032091;28;20024;-58
2022/08/26 07:42:49;;;;;;;1.85;0.50;;;22.80;90.20;;;;;;5033488;28;20092;-58
2022/08/26 07:45:14;;;;;;;2.97;0.65;;;22.80;90.20;;;;;;5033267;28;20033;-59
2022/08/26 07:47:40;;;;;;;2.45;0.50;;;22.80;90.20;;;;;;4996398;28;20020;-59
2022/08/26 07:50:06;;;;;;;1.67;0.55;;;22.80;90.10;;;;;;5026545;28;20025;-58
2022/08/26 07:52:31;;;;;;;2.38;0.40;;;22.80;90.10;;;;;;5020840;28;20109;-59
2022/08/26 07:54:59;;;;;;;3.55;0.57;;;22.80;90.00;;;;;;5032789;28;20160;-58
2022/08/26 07:57:26;;;;;;;2.97;0.50;;;22.80;90.00;;;;;;5031710;28;20032;-59
2022/08/26 07:59:52;;;;;;;2.25;0.47;;;22.90;90.00;;;;;;5032852;28;20558;-59
2022/08/26 08:02:17;;;;;;;2.63;0.40;;;22.90;89.90;;;;;;5031958;28;20036;-59
2022/08/26 08:04:43;;;;;;;3.60;0.50;;;23.00;89.70;;;;;;5032489;28;20113;-59
2022/08/26 08:07:09;;;;;;;3.67;0.60;;;23.00;89.60;;;;;;5031446;28;20030;-58
2022/08/26 08:09:34;;;;;;;1.58;0.40;;;23.10;89.60;;;;;;5031649;28;20059;-59
2022/08/26 08:12:00;;;;;;;4.05;0.68;;;23.10;89.40;;;;;;5032516;28;20111;-59
2022/08/26 08:14:25;;;;;;;2.67;0.85;;;23.20;89.20;;;;;;5032743;28;20049;-59
2022/08/26 08:16:54;;;;;;;5.10;0.93;;;23.20;89.00;;;;;;5032464;28;20026;-59
2022/08/26 08:19:19;;;;;;;2.60;0.50;;;23.30;89.00;;;;;;5031223;28;20029;-59
2022/08/26 08:21:45;;;;;;;2.50;0.73;;;23.30;88.80;;;;;;5032607;28;20041;-59
2022/08/26 08:24:11;;;;;;;3.35;0.50;;;23.30;88.70;;;;;;5031805;28;20108;-58
2022/08/26 08:26:36;;;;;;;1.95;0.47;;;23.40;88.50;;;;;;5032319;28;20580;-59
2022/08/26 08:29:07;;;;;;;2.78;0.50;;;23.40;88.50;;;;;;5031658;28;20061;-58
2022/08/26 08:31:33;;;;;;;2.83;0.50;;;23.40;88.10;;;;;;5032535;28;20131;-59
2022/08/26 08:33:58;;;;;;;3.38;0.52;;;23.50;87.90;;;;;;5032526;28;20026;-58
2022/08/26 08:36:24;;;;;;;3.13;0.60;;;23.60;87.70;;;;;;5032351;28;20036;-58
2022/08/26 08:39:28;;;;;;;4.90;0.75;;;23.60;87.60;;;;;;5031566;28;20083;-59
2022/08/26 08:42:19;;;;;;;2.97;0.55;;;23.50;87.40;;;;;;5031294;28;20040;-58
2022/08/26 08:44:47;;;;;;;3.10;1.13;;;23.60;87.40;;;;;;5030672;28;20382;-59
2022/08/26 08:47:29;;;;;;;4.00;0.60;;;23.50;87.40;;;;;;5033586;28;20378;-58
2022/08/26 08:50:01;;;;;;;2.50;0.63;;;23.60;87.30;;;;;;5028225;28;20072;-58
2022/08/26 08:52:31;;;;;;;6.57;0.85;;;23.50;87.00;;;;;;5030883;28;20276;-58
2022/08/26 08:54:57;;;;;;;;;;;23.60;87.00;;;;;;5031742;28;20065;-58
2022/08/26 08:58:00;;;;;;;3.03;0.77;;;23.50;87.00;;;;;;5025085;28;20380;-59
2022/08/26 09:00:31;;;;;;;2.70;0.60;;;23.50;86.90;;;;;;5031057;28;20021;-58
2022/08/26 09:03:03;;;;;;;1.17;0.40;;;23.50;87.20;;;;;;5025523;28;20014;-58
2022/08/26 09:05:40;;;;;;;2.60;0.50;;;23.50;86.80;;;;;;5023849;28;20029;-58
2022/08/26 09:08:14;;;;;;;1.95;0.50;;;23.60;86.60;;;;;;5028279;28;20028;-58
2022/08/26 09:10:45;;;;;;;2.38;0.40;;;23.60;86.40;;;;;;5031961;28;20363;-59
2022/08/26 09:13:17;;;;;;;4.97;0.60;;;23.60;86.40;;;;;;5031852;28;20026;-59
2022/08/26 09:16:01;;;;;;;4.93;1.00;;;23.60;86.20;;;;;;5031672;28;20021;-58
2022/08/26 09:18:36;;;;;;;5.00;0.77;;;23.60;86.10;;;;;;5031444;28;20440;-59
2022/08/26 09:21:12;;;;;;;2.85;0.52;;;23.60;86.10;;;;;;5031718;28;20481;-58
2022/08/26 09:23:40;;;;;;;3.95;0.45;;;23.60;85.90;;;;;;5021135;28;20021;-58
2022/08/26 09:26:21;;;;;;;2.70;0.60;;;23.50;86.00;;;;;;5031577;28;20057;-59
2022/08/26 09:28:54;;;;;;;4.93;0.75;;;23.50;85.80;;;;;;5032075;28;20049;-59
2022/08/26 09:31:27;;;;;;;3.67;0.75;;;23.50;86.00;;;;;;5031699;28;20468;-59
2022/08/26 09:34:23;;;;;;;2.10;0.40;;;23.50;85.90;;;;;;5032426;28;20100;-58
2022/08/26 09:36:57;;;;;;;3.33;0.40;;;23.50;85.70;;;;;;5022766;28;20029;-58
2022/08/26 09:39:35;;;;;;;3.00;0.60;;;23.50;85.90;;;;;;5031539;28;20101;-59
2022/08/26 09:42:22;;;;;;;2.10;0.50;;;23.50;85.90;;;;;;5035282;28;20018;-59
2022/08/26 09:45:00;;;;;;;1.92;0.40;;;23.40;86.10;;;;;;5035456;28;20257;-58
2022/08/26 09:47:32;;;;;;;3.35;0.45;;;23.40;86.00;;;;;;5035161;28;20485;-58
2022/08/26 09:50:04;;;;;;;4.20;0.90;;;23.40;86.10;;;;;;5035438;28;20076;-60
2022/08/26 09:52:30;;;;;;;5.18;0.50;;;23.40;86.20;;;;;;5023542;28;20045;-59
2022/08/26 09:55:33;;;;;;;3.22;1.15;;;23.30;86.20;;;;;;5035308;28;20057;-59
2022/08/26 09:57:59;;;;;;;3.83;0.50;;;23.30;86.20;;;;;;5025940;28;20049;-59
2022/08/26 10:00:54;;;;;;;3.30;0.40;;;23.30;86.30;;;;;;5034053;28;20029;-59
2022/08/26 10:03:29;;;;;;;2.22;0.50;;;23.30;85.90;;;;;;5034028;28;20160;-59
2022/08/26 10:06:22;;;;;;;3.40;0.60;;;23.30;86.10;;;;;;5035534;28;20029;-59
2022/08/26 10:08:52;;;;;;;3.72;0.50;;;23.30;85.80;;;;;;5025416;28;20037;-58
2022/08/26 10:11:40;;;;;;;2.40;0.43;;;23.30;86.10;;;;;;5033961;28;20095;-58
2022/08/26 10:14:19;;;;;;;1.27;0.40;;;23.30;85.80;;;;;;5033937;28;20025;-59
2022/08/26 10:16:54;;;;;;;2.80;0.40;;;23.30;85.90;;;;;;5013135;28;20006;-59
2022/08/26 10:19:28;;;;;;;2.35;0.52;;;23.30;85.80;;;;;;5040911;28;20025;-59
2022/08/26 10:22:00;;;;;;;2.88;0.50;;;23.30;85.70;;;;;;5037646;28;20028;-59
2022/08/26 10:24:48;;;;;;;3.70;0.93;;;23.30;85.60;;;;;;5037615;28;20033;-59
2022/08/26 10:27:21;;;;;;;5.30;0.40;;;23.40;85.50;;;;;;5044563;28;20021;-59
2022/08/26 10:29:50;;;;;;;3.03;0.40;;;23.30;85.70;;;;;;5037020;28;20037;-59
2022/08/26 10:32:29;;;;;;;3.55;0.43;;;23.40;85.60;;;;;;5034692;28;20087;-59
2022/08/26 10:34:54;;;;;;;2.97;1.15;;;23.40;85.40;;;;;;5040118;28;20028;-59
2022/08/26 10:37:24;;;;;;;3.17;0.40;;;23.40;85.40;;;;;;5039595;28;20030;-59
2022/08/26 10:40:14;;;;;;;1.60;0.35;;;23.40;85.30;;;;;;5037978;28;20018;-59
2022/08/26 10:43:00;;;;;;;5.32;0.60;;;23.50;85.10;;;;;;5041628;28;20476;-58
2022/08/26 10:45:30;;;;;;;1.25;0.40;;;23.40;85.00;;;;;;5034476;28;20556;-59
2022/08/26 10:48:00;;;;;;;1.60;0.30;;;23.40;85.10;;;;;;5033749;28;20025;-59
2022/08/26 10:50:31;;;;;;;2.15;0.30;;;23.40;85.10;;;;;;5034251;28;20505;-59
2022/08/26 10:53:09;;;;;;;2.42;0.85;;;23.50;85.20;;;;;;5036436;28;20029;-59
2022/08/26 10:55:46;;;;;;;1.23;0.30;;;23.40;85.20;;;;;;5024930;28;20018;-59
2022/08/26 10:58:11;;;;;;;2.08;0.35;;;23.50;85.20;;;;;;5039550;28;20053;-59
2022/08/26 11:03:39;;;;;;;4.18;0.60;;;23.50;85.40;;;;;;5032854;28;20080;-59
2022/08/26 11:06:23;;;;;;;3.70;0.60;;;23.50;85.70;;;;;;5033581;28;20021;-59
2022/08/26 11:08:55;;;;;;;4.50;0.77;;;23.50;85.80;;;;;;5032720;28;20423;-58
2022/08/26 11:11:45;;;;;;;3.65;0.70;;;23.40;86.20;;;;;;5034357;28;20041;-59
2022/08/26 11:14:19;;;;;;;2.88;0.50;;;23.50;86.00;;;;;;5032502;28;20083;-59
2022/08/26 11:16:48;;;;;;;5.63;0.50;;;23.50;86.10;;;;;;5031970;28;20496;-59
2022/08/26 11:19:29;;;;;;;2.85;0.55;;;23.50;86.20;;;;;;5034577;28;20108;-59
2022/08/26 11:22:04;;;;;;;1.63;0.50;;;23.60;86.00;;;;;;5034594;28;20053;-59
2022/08/26 11:24:52;;;;;;;3.13;0.50;;;23.60;86.00;;;;;;5033472;28;20025;-59
2022/08/26 11:27:35;;;;;;;3.22;0.50;;;23.60;85.90;;;;;;5040571;28;20100;-59
2022/08/26 11:30:27;;;;;;;3.20;0.50;;;23.60;85.80;;;;;;5038157;28;20124;-59
2022/08/26 11:32:56;;;;;;;2.50;0.50;;;23.60;85.70;;;;;;5033457;28;20041;-59
2022/08/26 11:35:24;;;;;;;2.35;0.57;;;23.60;85.60;;;;;;5032913;28;20017;-59
2022/08/26 11:38:17;;;;;;;5.90;0.52;;;23.50;85.50;;;;;;5032962;28;20080;-59
2022/08/26 11:40:42;;;;;;;1.50;0.30;;;23.50;85.20;;;;;;5032922;28;20091;-59
2022/08/26 11:43:19;;;;;;;4.75;0.70;;;23.40;85.30;;;;;;5031836;28;20061;-59
2022/08/26 11:45:56;;;;;;;1.63;0.50;;;23.40;84.90;;;;;;5036861;28;20030;-59
2022/08/26 11:48:32;;;;;;;2.63;0.47;;;23.30;85.10;;;;;;5029190;28;20363;-59
2022/08/26 11:51:06;;;;;;;3.08;0.40;;;23.30;84.80;;;;;;5031634;28;20080;-59
2022/08/26 11:53:35;;;;;;;3.38;0.40;;;23.40;84.60;;;;;;5031460;28;20041;-59
2022/08/26 11:56:08;;;;;;;3.13;0.40;;;23.40;84.50;;;;;;5028977;28;20022;-59
2022/08/26 11:58:39;;;;;;;2.70;0.50;;;23.40;84.20;;;;;;5031954;28;20020;-59
2022/08/26 12:01:07;;;;;;;2.10;0.40;;;23.40;83.90;;;;;;5032917;28;20060;-59
2022/08/26 12:03:44;;;;;;;2.13;0.35;;;23.50;83.60;;;;;;5032121;28;20049;-59
2022/08/26 12:06:16;;;;;;;5.80;0.52;;;23.50;83.30;;;;;;5031951;28;20033;-59
2022/08/26 12:08:43;;;;;;;1.63;0.50;;;23.60;83.10;;;;;;5032246;28;20045;-59
2022/08/26 12:11:21;;;;;;;5.25;0.40;;;23.60;83.00;;;;;;5031425;28;20470;-59
2022/08/26 12:14:04;;;;;;;1.33;0.40;;;23.70;82.90;;;;;;5021334;28;20018;-59
2022/08/26 12:16:35;;;;;;;2.67;0.30;;;23.70;82.60;;;;;;5031928;28;20014;-59
2022/08/26 12:19:19;;;;;;;1.80;0.40;;;23.80;82.40;;;;;;5030839;28;20037;-59
2022/08/26 12:21:47;;;;;;;2.85;0.40;;;23.80;82.20;;;;;;5030624;28;20017;-59
2022/08/26 12:24:17;;;;;;;1.63;0.30;;;23.90;82.00;;;;;;5031619;28;20385;-59
2022/08/26 12:27:05;;;;;;;1.85;0.40;;;24.00;81.80;;;;;;5032536;28;20408;-59
2022/08/26 12:29:30;;;;;;;1.83;0.30;;;24.00;81.70;;;;;;5032023;28;20060;-59
2022/08/26 12:32:17;;;;;;;1.58;0.30;;;24.10;81.40;;;;;;5032347;28;20041;-59
2022/08/26 12:34:45;;;;;;;2.08;0.40;;;24.20;81.00;;;;;;5026738;28;20032;-59
2022/08/26 12:37:12;;;;;;;4.35;0.50;;;24.10;81.60;;;;;;5031508;28;20120;-59
2022/08/26 12:39:41;;;;;;;3.00;0.30;;;24.10;81.60;;;;;;5031377;28;20101;-59
2022/08/26 12:42:14;;;;;;;3.50;0.30;;;24.00;80.90;;;;;;5030805;28;20030;-59
2022/08/26 12:44:45;;;;;;;2.10;0.38;;;24.00;80.70;;;;;;5031362;28;20030;-59
2022/08/26 12:47:14;;;;;;;2.80;0.55;;;24.00;80.70;;;;;;5030400;28;20102;-59
2022/08/26 12:49:41;;;;;;;1.87;0.60;;;23.90;80.80;;;;;;5017972;28;20444;-59
2022/08/26 12:52:31;;;;;;;3.38;0.50;;;23.90;80.80;;;;;;5025468;28;20032;-59
2022/08/26 12:55:04;;;;;;;2.78;0.40;;;23.90;80.70;;;;;;5029928;28;20099;-59
2022/08/26 12:57:34;;;;;;;2.58;0.50;;;24.00;80.50;;;;;;5043701;28;20025;-59
2022/08/26 13:00:23;;;;;;;2.78;0.50;;;24.00;80.30;;;;;;5030670;28;20500;-59
2022/08/26 13:02:49;;;;;;;1.75;0.50;;;24.00;80.00;;;;;;5030278;28;20382;-59
2022/08/26 13:05:34;;;;;;;1.80;0.30;;;23.90;80.20;;;;;;5030429;28;20472;-59
2022/08/26 13:08:25;;;;;;;1.77;0.40;;;24.00;80.10;;;;;;5028302;28;20104;-59
2022/08/26 13:11:04;;;;;;;3.42;0.30;;;24.00;80.10;;;;;;5030905;28;20029;-59